Flight Track Log - Related Links

Times and Time Zones

All times are in EST time to prevent confusion due to time zone crossing. See the UCA3599 flight status page for this flight to view local times or setup timezone preferences in your user account.

Time Position Orientation Groundspeed Altitude Reporting Facility
EST Latitude Longitude Course Direction KTS MPH feet Rate Location/Type
Mon 06:05:44 AM 42.2317 -76.0303 254° West 257 296 3,000  Level New York Center
Mon 06:06:44 AM 42.2186 -76.0908 254° West 180 207 4,400 1,400 Climbing New York Center
Mon 06:07:44 AM 42.1672 -76.1175 201° Southwest 165 190 5,800 1,400 Climbing New York Center
Mon 06:08:44 AM 42.1175 -76.1583 211° Southwest 185 213 7,200 1,450 Climbing New York Center
Mon 06:09:44 AM 42.0700 -76.1964 211° Southwest 205 236 8,700 1,450 Climbing New York Center
Mon 06:10:44 AM 42.0139 -76.2392 210° Southwest 215 247 10,100 1,350 Climbing New York Center
Mon 06:11:44 AM 41.9619 -76.2822 212° Southwest 215 247 11,400 1,300 Climbing New York Center
Mon 06:12:44 AM 41.9147 -76.3172 209° Southwest 220 253 12,700 1,450 Climbing New York Center
Mon 06:13:44 AM 41.8583 -76.3628 211° Southwest 220 253 14,300 1,150 Climbing New York Center
Mon 06:14:44 AM 41.8147 -76.4036 215° Southwest 220 253 15,000 850 Climbing New York Center
Mon 06:15:44 AM 41.7458 -76.4533 208° Southwest 233 268 16,000 500 Climbing New York Center
Mon 06:16:44 AM 41.6914 -76.4989 212° Southwest 257 296 16,000  Level New York Center
Mon 06:17:44 AM 41.6286 -76.5489 211° Southwest 265 305 16,000  Level New York Center
Mon 06:18:44 AM 41.5553 -76.6036 209° Southwest 277 319 16,000  Level New York Center
Mon 06:19:44 AM 41.4881 -76.6558 210° Southwest 282 325 16,000  Level New York Center
Mon 06:20:44 AM 41.4292 -76.7061 213° Southwest 282 325 16,000  Level New York Center
Mon 06:21:44 AM 41.3642 -76.7583 211° Southwest 282 325 16,000  Level New York Center
Mon 06:22:44 AM 41.2917 -76.7906 198° South 282 325 16,000  Level New York Center
Mon 06:23:44 AM 41.2117 -76.8056 188° South 282 325 16,000  Level New York Center
Mon 06:24:44 AM 41.1339 -76.8208 188° South 287 330 16,000  Level New York Center
Mon 06:25:44 AM 41.0539 -76.8356 188° South 287 330 16,000  Level New York Center
Mon 06:26:44 AM 40.9761 -76.8506 188° South 287 330 16,000  Level New York Center
Mon 06:27:44 AM 40.8983 -76.8658 188° South 292 336 16,000  Level New York Center
Mon 06:28:44 AM 40.8100 -76.8797 187° South 292 336 16,000  Level New York Center
Mon 06:29:44 AM 40.7422 -76.9011 193° South 292 336 16,000  Level New York Center
Mon 06:30:44 AM 40.6575 -76.9264 193° South 281 323 16,000  Level New York Center
Mon 06:31:44 AM 40.5917 -76.9478 194° South 281 323 16,000  Level New York Center
Mon 06:32:44 AM 40.5069 -76.9731 193° South 281 323 16,000 -459 Level New York Center
Mon 06:34:34 AM 40.3667 -77.0167 193° South 298 343 14,700 -841 Descending Potomac TRACON
Mon 06:35:28 AM 40.2833 -77.0333 189° South 309 356 13,700 -1,096 Descending Potomac TRACON
Mon 06:36:29 AM 40.2000 -77.0667 197° South 302 348 12,600 -1,091 Descending Potomac TRACON
Mon 06:37:29 AM 40.1333 -77.0833 191° South 287 330 11,500 -1,105 Descending Potomac TRACON
Mon 06:38:23 AM 40.0500 -77.1167 197° South 288 331 10,500 -1,111 Descending Potomac TRACON
Mon 06:39:17 AM 39.9833 -77.1333 180° South 285 328 9,500 -783 Descending Potomac TRACON
Mon 06:40:00 AM 39.9399 -77.1367 188° South  Level FlightAware Approximate
Mon 06:40:18 AM 39.9167 -77.1500 191° South 285 328 9,000  Level Potomac TRACON
Mon 06:41:18 AM 39.8333 -77.1500 180° South 285 328 8,500 -504 Descending Potomac TRACON
Mon 06:42:17 AM 39.7500 -77.1333 171° South 286 329 8,000 -263 Descending Potomac TRACON
Mon 06:43:12 AM 39.7000 -77.1667 207° Southwest 270 311 8,000  Level Potomac TRACON
Mon 06:44:12 AM 39.6667 -77.2500 243° Southwest 255 293 8,000  Level Potomac TRACON
Mon 06:45:12 AM 39.6333 -77.3167 237° Southwest 253 291 8,000 -50 Level Potomac TRACON
Mon 06:46:12 AM 39.5833 -77.4000 232° Southwest 257 296 7,900 -474 Descending Potomac TRACON
Mon 06:47:00 AM 39.5119 -77.3483 186° South  Level FlightAware Approximate
Mon 06:47:06 AM 39.5333 -77.4333 207° Southwest 280 322 7,100  Level Potomac TRACON
Mon 06:48:00 AM 39.4432 -77.3500 180° South  Level FlightAware Approximate
Mon 06:48:06 AM 39.4667 -77.4167 169° South 266 306 6,200  Level Potomac TRACON
Mon 06:49:00 AM 39.3745 -77.3500 180° South  Level FlightAware Approximate
Mon 06:49:00 AM 39.4000 -77.3667 150° Southeast 271 312 6,000  Level Potomac TRACON
Mon 06:50:00 AM 39.2970 -77.3500 180° South  Level FlightAware Approximate
Mon 06:50:00 AM 39.3333 -77.3667 180° South 259 298 5,800  Level Potomac TRACON
Mon 06:51:00 AM 39.2195 -77.3500 180° South  Level FlightAware Approximate
Mon 06:51:00 AM 39.2500 -77.3667 180° South 269 310 4,900  Level Potomac TRACON
Mon 06:52:00 AM 39.1421 -77.3500 180° South  Level FlightAware Approximate
Mon 06:52:00 AM 39.1833 -77.3667 180° South 259 298 4,000  Level Potomac TRACON
Mon 06:52:54 AM 39.1167 -77.3667 180° South 253 291 4,000  Level Potomac TRACON
Mon 06:53:54 AM 39.0500 -77.3500 169° South 244 281 4,000  Level Potomac TRACON
Mon 06:54:54 AM 38.9833 -77.3500 180° South 244 281 4,000 -350 Level Potomac TRACON
Mon 06:55:54 AM 38.9167 -77.3500 180° South 247 284 3,300 -500 Descending Potomac TRACON
Mon 06:56:54 AM 38.8500 -77.3667 191° South 233 268 3,000 -600 Descending Potomac TRACON
Mon 06:57:54 AM 38.8000 -77.3667 180° South 192 221 2,100 -500 Descending Potomac TRACON
Mon 06:58:54 AM 38.7833 -77.4167 247° West 209 241 2,000 -53 Descending Potomac TRACON
Mon 06:59:48 AM 38.8167 -77.4333 339° North 176 203 2,000 -158 Level Potomac TRACON
Mon 07:00:48 AM 38.8667 -77.4333 360° North 152 175 1,700 -550 Descending Potomac TRACON
Mon 07:01:48 AM 38.9000 -77.4333 360° North 123 142 900 -800 Descending Potomac TRACON
Mon 07:03:00 AM 38.9333 -77.4500 349° North  Level FlightAware Approximate
Mon 07:10:00 AM 38.9474 -77.4599 349° North  Level Estimated
Mon 07:11:00 AM 38.9474 -77.4599 349° North  Level Estimated

Login

Don't have an account? Register now (free) for customized features, flight alerts, and more!